Time;durP1;ratioP1;P1;durP2;ratioP2;P2;SDS_P1;SDS_P2;PMS_P1;PMS_P2;Temp;Humidity;BMP_temperature;BMP_pressure;BME280_temperature;BME280_humidity;BME280_pressure;Samples;Min_cycle;Max_cycle;Signal;HPM_P1;HPM_P2
2023/04/25 00:04:48;;;;;;;;;;;;;;;6.57;80.58398;101195.7;;;;-70
2023/04/25 00:09:48;;;;;;;;;;;;;;;6.5;80.51563;101201.3;;;;-69
2023/04/25 00:14:49;;;;;;;;;;;;;;;6.48;80.7002;101198.3;;;;-69
2023/04/25 00:17:47;;;;;;;5.7;1.5;;;;;;;;;;;;;-68
2023/04/25 00:19:47;;;;;;;;;;;;;;;6.45;80.5957;101197;;;;-69
2023/04/25 00:24:46;;;;;;;;;;;;;;;6.39;80.66211;101198.8;;;;-70
2023/04/25 00:29:46;;;;;;;;;;;;;;;6.35;80.57617;101201.4;;;;-68
2023/04/25 00:34:46;;;;;;;;;;;;;;;6.3;80.54395;101206.5;;;;-70
2023/04/25 00:39:46;;;;;;;;;;;;;;;6.19;80.68848;101204.5;;;;-69
2023/04/25 00:44:46;;;;;;;;;;;;;;;6.12;80.53418;101207;;;;-69
2023/04/25 00:47:51;;;;;;;4.7;1.4;;;;;;;;;;;;;-69
2023/04/25 00:49:46;;;;;;;;;;;;;;;6.03;80.45313;101215.1;;;;-70
2023/04/25 00:54:46;;;;;;;;;;;;;;;5.99;80.77344;101210.2;;;;-70
2023/04/25 00:59:50;;;;;;;;;;;;;;;5.95;80.60059;101219.5;;;;-69
2023/04/25 01:04:46;;;;;;;;;;;;;;;5.9;80.64648;101227.3;;;;-70
2023/04/25 01:09:46;;;;;;;;;;;;;;;5.87;80.6748;101224.1;;;;-69
2023/04/25 01:14:46;;;;;;;;;;;;;;;5.89;80.65625;101218.5;;;;-68
2023/04/25 01:17:49;;;;;;;6.4;1.4;;;;;;;;;;;;;-69
2023/04/25 01:19:48;;;;;;;;;;;;;;;5.89;80.36035;101221.1;;;;-70
2023/04/25 01:24:46;;;;;;;;;;;;;;;5.86;80.60742;101223.8;;;;-69
2023/04/25 01:29:46;;;;;;;;;;;;;;;5.87;80.37891;101229.5;;;;-70
2023/04/25 01:34:46;;;;;;;;;;;;;;;5.83;80.45801;101232;;;;-70
2023/04/25 01:39:46;;;;;;;;;;;;;;;5.84;80.55859;101228;;;;-69
2023/04/25 01:44:46;;;;;;;;;;;;;;;5.79;80.7793;101233.3;;;;-69
2023/04/25 01:47:50;;;;;;;4.1;0.9;;;;;;;;;;;;;-69
2023/04/25 01:49:55;;;;;;;;;;;;;;;5.78;80.60254;101240.7;;;;-68
2023/04/25 01:54:46;;;;;;;;;;;;;;;5.67;80.50586;101249.3;;;;-69
2023/04/25 01:59:46;;;;;;;;;;;;;;;5.61;80.46094;101249.3;;;;-68
2023/04/25 02:04:54;;;;;;;;;;;;;;;5.55;80.82129;101253.4;;;;-69
2023/04/25 02:09:46;;;;;;;;;;;;;;;5.47;80.51074;101252;;;;-69
2023/04/25 02:14:48;;;;;;;;;;;;;;;5.41;80.74121;101262.5;;;;-69
2023/04/25 02:17:52;;;;;;;10.3;1.4;;;;;;;;;;;;;-68
2023/04/25 02:19:46;;;;;;;;;;;;;;;5.39;80.62793;101259.4;;;;-68
2023/04/25 02:24:46;;;;;;;;;;;;;;;5.43;80.56934;101267.2;;;;-70
2023/04/25 02:29:46;;;;;;;;;;;;;;;5.42;80.5791;101265.1;;;;-71
2023/04/25 02:34:46;;;;;;;;;;;;;;;5.42;80.48047;101261.6;;;;-69
2023/04/25 02:39:46;;;;;;;;;;;;;;;5.45;80.43066;101256.8;;;;-70
2023/04/25 02:44:46;;;;;;;;;;;;;;;5.49;80.41699;101269.7;;;;-69
2023/04/25 02:47:51;;;;;;;5.5;1.2;;;;;;;;;;;;;-69
2023/04/25 02:49:49;;;;;;;;;;;;;;;5.49;80.35156;101269.2;;;;-69
2023/04/25 02:54:47;;;;;;;;;;;;;;;5.5;80.39746;101280;;;;-70
2023/04/25 02:59:46;;;;;;;;;;;;;;;5.52;80.2041;101284.2;;;;-69
2023/04/25 03:04:46;;;;;;;;;;;;;;;5.49;80.56836;101292;;;;-69
2023/04/25 03:09:46;;;;;;;;;;;;;;;5.46;80.68555;101293.4;;;;-71
2023/04/25 03:14:46;;;;;;;;;;;;;;;5.46;80.56348;101291;;;;-68
2023/04/25 03:17:51;;;;;;;6.6;0.9;;;;;;;;;;;;;-70
2023/04/25 03:19:46;;;;;;;;;;;;;;;5.46;80.58594;101297.3;;;;-72
2023/04/25 03:24:47;;;;;;;;;;;;;;;5.46;80.4873;101308.2;;;;-69
2023/04/25 03:29:46;;;;;;;;;;;;;;;5.46;80.55273;101304.1;;;;-70
2023/04/25 03:34:46;;;;;;;;;;;;;;;5.46;80.53125;101296.5;;;;-71
2023/04/25 03:39:46;;;;;;;;;;;;;;;5.46;80.41113;101293.9;;;;-70
2023/04/25 03:44:46;;;;;;;;;;;;;;;5.44;80.27637;101299.9;;;;-68
2023/04/25 03:47:52;;;;;;;4.9;1;;;;;;;;;;;;;-69
2023/04/25 03:49:46;;;;;;;;;;;;;;;5.45;80.27734;101299.4;;;;-69
2023/04/25 03:54:46;;;;;;;;;;;;;;;5.5;80.04688;101321.9;;;;-69
2023/04/25 03:59:46;;;;;;;;;;;;;;;5.45;80.20117;101317.9;;;;-69
2023/04/25 04:04:47;;;;;;;;;;;;;;;5.45;80.14648;101314.8;;;;-69
2023/04/25 04:09:46;;;;;;;;;;;;;;;5.45;80.38672;101314.6;;;;-70
2023/04/25 04:14:46;;;;;;;;;;;;;;;5.46;80.30176;101319.5;;;;-68
2023/04/25 04:17:53;;;;;;;3.8;1;;;;;;;;;;;;;-70
2023/04/25 04:19:49;;;;;;;;;;;;;;;5.43;80.25293;101322;;;;-68
2023/04/25 04:24:47;;;;;;;;;;;;;;;5.43;80.35059;101324.9;;;;-70
2023/04/25 04:29:46;;;;;;;;;;;;;;;5.46;80.29004;101331.2;;;;-70
2023/04/25 04:34:47;;;;;;;;;;;;;;;5.46;80.46582;101337.2;;;;-71
2023/04/25 04:39:52;;;;;;;;;;;;;;;5.46;80.19238;101339.5;;;;-70
2023/04/25 04:44:46;;;;;;;;;;;;;;;5.46;80.39063;101340.6;;;;-70
2023/04/25 04:47:58;;;;;;;4.7;0.8;;;;;;;;;;;;;-71
2023/04/25 04:49:46;;;;;;;;;;;;;;;5.41;80.37109;101348.5;;;;-69
2023/04/25 04:54:46;;;;;;;;;;;;;;;5.38;80.25293;101349.9;;;;-69
2023/04/25 04:59:46;;;;;;;;;;;;;;;5.38;80.30762;101354.4;;;;-70
2023/04/25 05:04:46;;;;;;;;;;;;;;;5.37;80.20996;101366.4;;;;-69
2023/04/25 05:09:46;;;;;;;;;;;;;;;5.35;80.25879;101373.2;;;;-69
2023/04/25 05:14:46;;;;;;;;;;;;;;;5.34;80.2041;101374.4;;;;-70
2023/04/25 05:17:56;;;;;;;2.1;0.7;;;;;;;;;;;;;-69
2023/04/25 05:19:46;;;;;;;;;;;;;;;5.37;80.16602;101384.7;;;;-71
2023/04/25 05:24:46;;;;;;;;;;;;;;;5.42;80.09766;101390.5;;;;-69
2023/04/25 05:29:46;;;;;;;;;;;;;;;5.48;79.81445;101387.3;;;;-70
2023/04/25 05:34:46;;;;;;;;;;;;;;;5.54;79.72559;101395.2;;;;-71
2023/04/25 05:39:46;;;;;;;;;;;;;;;5.67;79.55371;101402;;;;-70
2023/04/25 05:44:46;;;;;;;;;;;;;;;5.91;79.5957;101404.5;;;;-68
2023/04/25 05:47:54;;;;;;;3.2;1;;;;;;;;;;;;;-72
2023/04/25 05:49:51;;;;;;;;;;;;;;;6.28;79.12988;101410.6;;;;-72
2023/04/25 05:54:46;;;;;;;;;;;;;;;6.41;78.18945;101410;;;;-69
2023/04/25 05:59:46;;;;;;;;;;;;;;;6.49;78.57422;101418.7;;;;-70
2023/04/25 06:04:46;;;;;;;;;;;;;;;6.51;78.52539;101420.9;;;;-70
2023/04/25 06:09:46;;;;;;;;;;;;;;;6.58;78.64648;101432.8;;;;-68
2023/04/25 06:14:46;;;;;;;;;;;;;;;6.66;78.79297;101440.1;;;;-69
2023/04/25 06:17:54;;;;;;;5;1;;;;;;;;;;;;;-69
2023/04/25 06:19:48;;;;;;;;;;;;;;;6.77;78.61426;101443.8;;;;-70
2023/04/25 06:24:46;;;;;;;;;;;;;;;6.85;78.95801;101448.1;;;;-70
2023/04/25 06:29:46;;;;;;;;;;;;;;;6.96;78.8916;101454.9;;;;-70
2023/04/25 06:34:46;;;;;;;;;;;;;;;7.07;78.41602;101457.5;;;;-69
2023/04/25 06:39:46;;;;;;;;;;;;;;;7.21;78.25586;101456.9;;;;-69
2023/04/25 06:44:46;;;;;;;;;;;;;;;7.39;77.82715;101457.9;;;;-70
2023/04/25 06:47:58;;;;;;;5.3;1;;;;;;;;;;;;;-69
2023/04/25 06:49:46;;;;;;;;;;;;;;;7.74;77.17383;101456.5;;;;-70
2023/04/25 06:54:46;;;;;;;;;;;;;;;7.9;76.35547;101463.1;;;;-69
2023/04/25 06:59:46;;;;;;;;;;;;;;;7.98;76.38965;101481.1;;;;-71
2023/04/25 07:04:47;;;;;;;;;;;;;;;7.86;76.42383;101485.2;;;;-70
2023/04/25 07:09:46;;;;;;;;;;;;;;;7.76;76.82617;101482.7;;;;-70
2023/04/25 07:14:46;;;;;;;;;;;;;;;7.94;76.65918;101485.5;;;;-69
2023/04/25 07:17:56;;;;;;;3.5;0.7;;;;;;;;;;;;;-69
2023/04/25 07:19:46;;;;;;;;;;;;;;;8.52;74.66602;101487.2;;;;-73
2023/04/25 07:24:48;;;;;;;;;;;;;;;9.14;73.63281;101487.8;;;;-73
2023/04/25 07:29:46;;;;;;;;;;;;;;;9.75;72.75293;101489.8;;;;-73
2023/04/25 07:34:47;;;;;;;;;;;;;;;10.2;70.91113;101498.1;;;;-74
2023/04/25 07:39:46;;;;;;;;;;;;;;;10.44;71.07031;101502;;;;-75
2023/04/25 07:44:47;;;;;;;;;;;;;;;10.68;70.37793;101504.3;;;;-72
2023/04/25 07:47:58;;;;;;;6.2;1.1;;;;;;;;;;;;;-74
2023/04/25 07:49:46;;;;;;;;;;;;;;;10.98;69.40332;101507.2;;;;-73
2023/04/25 07:54:47;;;;;;;;;;;;;;;11.37;68.34277;101506.9;;;;-73
2023/04/25 07:59:46;;;;;;;;;;;;;;;11.69;67.09961;101514.6;;;;-73
2023/04/25 08:04:46;;;;;;;;;;;;;;;12.09;66.72754;101518.9;;;;-73
2023/04/25 08:09:46;;;;;;;;;;;;;;;12.65;65.4834;101521.5;;;;-74
2023/04/25 08:14:50;;;;;;;;;;;;;;;12.74;64.60254;101534.8;;;;-73
2023/04/25 08:17:59;;;;;;;3.4;1;;;;;;;;;;;;;-73
2023/04/25 08:19:46;;;;;;;;;;;;;;;12.02;64.37598;101559.3;;;;-73
2023/04/25 08:24:46;;;;;;;;;;;;;;;11.41;65.55469;101580.9;;;;-74
2023/04/25 08:29:56;;;;;;;;;;;;;;;11.03;65.97559;101576.8;;;;-72
2023/04/25 08:34:46;;;;;;;;;;;;;;;10.82;66.16797;101588.8;;;;-77
2023/04/25 08:39:46;;;;;;;;;;;;;;;10.76;67.5918;101593.9;;;;-75
2023/04/25 08:44:50;;;;;;;;;;;;;;;11.1;67.75488;101601.7;;;;-74
2023/04/25 08:48:04;;;;;;;2.2;0.6;;;;;;;;;;;;;-77
2023/04/25 08:49:48;;;;;;;;;;;;;;;11.5;67.21582;101610;;;;-74
2023/04/25 08:54:47;;;;;;;;;;;;;;;11.68;66.55371;101612.2;;;;-73
2023/04/25 08:59:48;;;;;;;;;;;;;;;11.87;66.33691;101614.3;;;;-75
2023/04/25 09:04:51;;;;;;;;;;;;;;;12.06;65.59668;101619.9;;;;-74
2023/04/25 09:09:46;;;;;;;;;;;;;;;12.01;65.24316;101626.3;;;;-73
2023/04/25 09:15:01;;;;;;;;;;;;;;;12.05;65.70605;101635;;;;-73
2023/04/25 09:18:03;;;;;;;5.2;0.9;;;;;;;;;;;;;-74
2023/04/25 09:19:50;;;;;;;;;;;;;;;12.41;65.6709;101631;;;;-74
2023/04/25 09:24:50;;;;;;;;;;;;;;;12.97;65.74414;101629.3;;;;-72
2023/04/25 09:29:46;;;;;;;;;;;;;;;13.73;64.95215;101625.2;;;;-73
2023/04/25 09:34:51;;;;;;;;;;;;;;;14.27;63.74023;101627.9;;;;-75
2023/04/25 09:39:48;;;;;;;;;;;;;;;14.55;62.63672;101632.3;;;;-72
2023/04/25 09:44:50;;;;;;;;;;;;;;;14.72;61.93066;101641.2;;;;-73
2023/04/25 09:48:06;;;;;;;4.7;0.9;;;;;;;;;;;;;-72
2023/04/25 09:49:49;;;;;;;;;;;;;;;14.48;60.46094;101671;;;;-73
2023/04/25 09:54:46;;;;;;;;;;;;;;;13.5;60.81836;101684.3;;;;-74
2023/04/25 09:59:47;;;;;;;;;;;;;;;12.65;62.48926;101696.3;;;;-73
2023/04/25 10:04:48;;;;;;;;;;;;;;;12.16;64.7627;101700.8;;;;-74
2023/04/25 10:09:50;;;;;;;;;;;;;;;11.9;65.5166;101702.3;;;;-73
2023/04/25 10:14:46;;;;;;;;;;;;;;;11.89;64.04297;101701;;;;-73
2023/04/25 10:18:07;;;;;;;4.9;0.8;;;;;;;;;;;;;-72
2023/04/25 10:19:46;;;;;;;;;;;;;;;12.34;66.44238;101703.2;;;;-71
2023/04/25 10:24:47;;;;;;;;;;;;;;;12.88;65.16113;101699.9;;;;-73
2023/04/25 10:29:47;;;;;;;;;;;;;;;13.33;65.05957;101691.2;;;;-72
2023/04/25 10:34:50;;;;;;;;;;;;;;;13.85;64.70996;101690.3;;;;-72
2023/04/25 10:39:46;;;;;;;;;;;;;;;14.12;64.36914;101695.2;;;;-73
2023/04/25 10:44:56;;;;;;;;;;;;;;;13.8;63.14648;101705;;;;-71
2023/04/25 10:48:18;;;;;;;4.3;0.7;;;;;;;;;;;;;-73
2023/04/25 10:49:46;;;;;;;;;;;;;;;13.85;63.1084;101700.4;;;;-72
2023/04/25 10:54:50;;;;;;;;;;;;;;;14.11;64.27832;101709.9;;;;-73
2023/04/25 10:59:46;;;;;;;;;;;;;;;14.17;62.9082;101714.9;;;;-73
2023/04/25 11:04:46;;;;;;;;;;;;;;;14.04;63.81934;101709.8;;;;-73
2023/04/25 11:14:29;;;;;;;;;;;;;;;14.19;63.5166;101710.6;;;;-72
2023/04/25 11:18:10;;;;;;;3.1;0.8;;;;;;;;;;;;;-73
2023/04/25 11:19:30;;;;;;;;;;;;;;;14.23;64.44336;101714.1;;;;-74
2023/04/25 11:24:34;;;;;;;;;;;;;;;14.58;65.22168;101715.4;;;;-73
2023/04/25 11:29:32;;;;;;;;;;;;;;;14.86;65.0166;101708.1;;;;-72
2023/04/25 11:34:38;;;;;;;;;;;;;;;14.98;63.57324;101715.4;;;;-72
2023/04/25 11:39:32;;;;;;;;;;;;;;;15.26;63.27734;101713.7;;;;-73
2023/04/25 11:44:29;;;;;;;;;;;;;;;15.56;62.42188;101702.6;;;;-72
2023/04/25 11:48:13;;;;;;;5.3;0.9;;;;;;;;;;;;;-71
2023/04/25 11:49:35;;;;;;;;;;;;;;;15.71;62.11523;101722.5;;;;-72
2023/04/25 11:54:29;;;;;;;;;;;;;;;16.09;62.12305;101726.5;;;;-73
2023/04/25 11:59:33;;;;;;;;;;;;;;;16.26;61.38086;101740.6;;;;-71
2023/04/25 12:04:29;;;;;;;;;;;;;;;16.17;60.71387;101742.7;;;;-71
2023/04/25 12:09:35;;;;;;;;;;;;;;;15.66;61.70313;101750.1;;;;-72
2023/04/25 12:14:30;;;;;;;;;;;;;;;15.25;62.89355;101744.5;;;;-72
2023/04/25 12:18:15;;;;;;;3.2;0.9;;;;;;;;;;;;;-74
2023/04/25 12:19:30;;;;;;;;;;;;;;;15.2;63.45996;101747.5;;;;-71
2023/04/25 12:24:30;;;;;;;;;;;;;;;15.53;62.22656;101747.5;;;;-73
2023/04/25 12:29:33;;;;;;;;;;;;;;;15.46;60.54883;101748.7;;;;-74
2023/04/25 12:34:31;;;;;;;;;;;;;;;15.15;60.45215;101761;;;;-74
2023/04/25 12:39:29;;;;;;;;;;;;;;;14.97;60.75195;101763;;;;-74
2023/04/25 12:44:29;;;;;;;;;;;;;;;15.4;60.35059;101764.1;;;;-73
2023/04/25 12:48:17;;;;;;;4.1;1;;;;;;;;;;;;;-73
2023/04/25 12:49:29;;;;;;;;;;;;;;;15.69;59.76953;101764.8;;;;-73
2023/04/25 12:54:31;;;;;;;;;;;;;;;15.96;58.89355;101773.1;;;;-74
2023/04/25 12:59:30;;;;;;;;;;;;;;;16;61.10742;101777.3;;;;-74
2023/04/25 13:04:32;;;;;;;;;;;;;;;15.9;59.46094;101777.8;;;;-74
2023/04/25 13:09:29;;;;;;;;;;;;;;;16.03;59.94141;101778.2;;;;-73
2023/04/25 13:14:29;;;;;;;;;;;;;;;16.37;58.83496;101773.7;;;;-75
2023/04/25 13:18:26;;;;;;;4.6;1;;;;;;;;;;;;;-73
2023/04/25 13:19:31;;;;;;;;;;;;;;;16.49;58.96387;101778;;;;-74
2023/04/25 13:24:29;;;;;;;;;;;;;;;16.45;57.9541;101785.4;;;;-74
2023/04/25 13:29:29;;;;;;;;;;;;;;;15.98;57.82617;101796.2;;;;-73
2023/04/25 13:34:34;;;;;;;;;;;;;;;15.9;58.77246;101796.2;;;;-74
2023/04/25 13:39:29;;;;;;;;;;;;;;;15.77;58.72168;101788.1;;;;-74
2023/04/25 13:44:29;;;;;;;;;;;;;;;16.11;59.52344;101786.3;;;;-74
2023/04/25 13:48:23;;;;;;;3.7;0.8;;;;;;;;;;;;;-74
2023/04/25 13:49:34;;;;;;;;;;;;;;;16.52;58.86719;101785.5;;;;-74
2023/04/25 13:54:29;;;;;;;;;;;;;;;16.49;59.25879;101793.1;;;;-73
2023/04/25 13:59:29;;;;;;;;;;;;;;;16.11;57.49316;101810.4;;;;-74
2023/04/25 14:04:32;;;;;;;;;;;;;;;15.66;57.77246;101813.2;;;;-77
2023/04/25 14:09:29;;;;;;;;;;;;;;;15.55;58.37695;101819.4;;;;-73
2023/04/25 14:14:29;;;;;;;;;;;;;;;15.46;58.58984;101820.1;;;;-72
2023/04/25 14:18:25;;;;;;;6;0.9;;;;;;;;;;;;;-73
2023/04/25 14:19:29;;;;;;;;;;;;;;;15.51;59.2041;101818.6;;;;-73
2023/04/25 14:24:29;;;;;;;;;;;;;;;15.76;57.84082;101808.7;;;;-73
2023/04/25 14:29:31;;;;;;;;;;;;;;;15.78;58.2832;101814;;;;-73
2023/04/25 14:34:29;;;;;;;;;;;;;;;15.78;58.54199;101813.9;;;;-74
2023/04/25 14:39:29;;;;;;;;;;;;;;;15.9;57.04785;101816.8;;;;-73
2023/04/25 14:44:31;;;;;;;;;;;;;;;16.05;56.44531;101821.5;;;;-74
2023/04/25 14:48:28;;;;;;;5.4;1;;;;;;;;;;;;;-74
2023/04/25 14:49:29;;;;;;;;;;;;;;;16.21;56.11719;101831;;;;-74
2023/04/25 14:54:29;;;;;;;;;;;;;;;16.29;55.83301;101837;;;;-74
2023/04/25 14:59:32;;;;;;;;;;;;;;;16.25;55.34375;101845.5;;;;-75
2023/04/25 15:04:29;;;;;;;;;;;;;;;16.08;55.19727;101845.7;;;;-72
2023/04/25 15:09:29;;;;;;;;;;;;;;;16;55.3457;101843.6;;;;-74
2023/04/25 15:14:31;;;;;;;;;;;;;;;15.72;57.05859;101835.7;;;;-70
2023/04/25 15:18:30;;;;;;;5.2;1;;;;;;;;;;;;;-69
2023/04/25 15:19:29;;;;;;;;;;;;;;;15.65;56.71094;101834.2;;;;-70
2023/04/25 15:24:29;;;;;;;;;;;;;;;15.76;57.36719;101840.6;;;;-70
2023/04/25 15:29:29;;;;;;;;;;;;;;;15.85;57.25684;101847.4;;;;-69
2023/04/25 15:34:29;;;;;;;;;;;;;;;15.57;57.24121;101846.5;;;;-69
2023/04/25 15:39:29;;;;;;;;;;;;;;;15.23;57.08496;101855.7;;;;-69
2023/04/25 15:44:29;;;;;;;;;;;;;;;15.02;55.70703;101859.5;;;;-70
2023/04/25 15:48:33;;;;;;;5.5;1.2;;;;;;;;;;;;;-69
2023/04/25 15:49:30;;;;;;;;;;;;;;;14.72;57.28906;101858;;;;-68
2023/04/25 15:54:29;;;;;;;;;;;;;;;14.64;58.16699;101863;;;;-69
2023/04/25 15:59:29;;;;;;;;;;;;;;;14.75;56.83105;101859.8;;;;-68
2023/04/25 16:04:34;;;;;;;;;;;;;;;14.8;57.02832;101866.6;;;;-69
2023/04/25 16:09:29;;;;;;;;;;;;;;;14.7;57.20703;101864.5;;;;-69
2023/04/25 16:14:30;;;;;;;;;;;;;;;14.63;58.31152;101869.2;;;;-69
2023/04/25 16:18:39;;;;;;;3.6;1;;;;;;;;;;;;;-70
2023/04/25 16:19:37;;;;;;;;;;;;;;;14.63;57.79492;101874.1;;;;-70
2023/04/25 16:24:31;;;;;;;;;;;;;;;14.61;58.5;101869.5;;;;-69
2023/04/25 16:29:29;;;;;;;;;;;;;;;14.5;58.23828;101874.8;;;;-69
2023/04/25 16:34:31;;;;;;;;;;;;;;;14.15;56.89941;101877.8;;;;-71
2023/04/25 16:39:33;;;;;;;;;;;;;;;13.83;59.68652;101879.5;;;;-73
2023/04/25 16:44:31;;;;;;;;;;;;;;;13.59;60.8877;101879.4;;;;-74
2023/04/25 16:48:38;;;;;;;6;1.5;;;;;;;;;;;;;-74
2023/04/25 16:49:32;;;;;;;;;;;;;;;13.35;60.34961;101881.2;;;;-72
2023/04/25 16:54:36;;;;;;;;;;;;;;;13.17;59.87598;101884;;;;-74
2023/04/25 16:59:29;;;;;;;;;;;;;;;13.13;61.68457;101893.8;;;;-73
2023/04/25 17:04:29;;;;;;;;;;;;;;;13.11;60.48438;101893.7;;;;-74
2023/04/25 17:09:29;;;;;;;;;;;;;;;13.06;59.91895;101894.3;;;;-70
2023/04/25 17:14:31;;;;;;;;;;;;;;;12.9;58.92188;101910.7;;;;-70
2023/04/25 17:18:40;;;;;;;7.8;1.6;;;;;;;;;;;;;-69
2023/04/25 17:19:29;;;;;;;;;;;;;;;12.75;59.95313;101914.7;;;;-69
2023/04/25 17:24:29;;;;;;;;;;;;;;;12.57;60.20898;101923.4;;;;-68
2023/04/25 17:29:29;;;;;;;;;;;;;;;12.35;60.09961;101928.5;;;;-69
2023/04/25 17:34:30;;;;;;;;;;;;;;;12.01;59.75195;101932.8;;;;-68
2023/04/25 17:39:30;;;;;;;;;;;;;;;11.75;59.80664;101925;;;;-69
2023/04/25 17:44:29;;;;;;;;;;;;;;;11.63;60.54785;101932.3;;;;-69
2023/04/25 17:48:42;;;;;;;7.3;1.8;;;;;;;;;;;;;-69
2023/04/25 17:49:29;;;;;;;;;;;;;;;11.55;60.88379;101932.3;;;;-69
2023/04/25 17:54:29;;;;;;;;;;;;;;;11.41;61.09766;101933.6;;;;-69
2023/04/25 17:59:29;;;;;;;;;;;;;;;11.27;61.74707;101937.4;;;;-70
2023/04/25 18:04:30;;;;;;;;;;;;;;;11.13;61.98242;101939;;;;-69
2023/04/25 18:09:31;;;;;;;;;;;;;;;10.96;62.10254;101936.9;;;;-70
2023/04/25 18:14:29;;;;;;;;;;;;;;;10.82;62.85156;101941.9;;;;-70
2023/04/25 18:18:51;;;;;;;3.1;1.7;;;;;;;;;;;;;-69
2023/04/25 18:19:29;;;;;;;;;;;;;;;10.68;62.28613;101944.7;;;;-70
2023/04/25 18:24:30;;;;;;;;;;;;;;;10.5;62.19434;101954;;;;-69
2023/04/25 18:29:29;;;;;;;;;;;;;;;10.34;63.2832;101964.6;;;;-70
2023/04/25 18:34:29;;;;;;;;;;;;;;;10.13;62.44238;101975.7;;;;-69
2023/04/25 18:39:29;;;;;;;;;;;;;;;9.91;62.87598;101991.1;;;;-69
2023/04/25 18:44:31;;;;;;;;;;;;;;;9.81;63.4502;101992.7;;;;-71
2023/04/25 18:48:47;;;;;;;4;1.6;;;;;;;;;;;;;-70
2023/04/25 18:49:29;;;;;;;;;;;;;;;9.68;63.52148;101974;;;;-69
2023/04/25 18:54:30;;;;;;;;;;;;;;;9.54;63.01074;101971;;;;-70
2023/04/25 18:59:29;;;;;;;;;;;;;;;9.34;62.69336;101968.8;;;;-69
2023/04/25 19:04:29;;;;;;;;;;;;;;;9.17;62.90137;101975.9;;;;-72
2023/04/25 19:09:29;;;;;;;;;;;;;;;9.01;63.19043;101978.9;;;;-70
2023/04/25 19:14:30;;;;;;;;;;;;;;;8.79;63.42285;101978.1;;;;-70
2023/04/25 19:18:46;;;;;;;4.5;1.6;;;;;;;;;;;;;-71
2023/04/25 19:19:29;;;;;;;;;;;;;;;8.64;63.88867;101982.7;;;;-70
2023/04/25 19:24:31;;;;;;;;;;;;;;;8.44;64.7334;101987.5;;;;-69
2023/04/25 19:29:31;;;;;;;;;;;;;;;8.3;64.625;101989.8;;;;-74
2023/04/25 19:34:29;;;;;;;;;;;;;;;8.1;64.95996;101994;;;;-73
2023/04/25 19:39:29;;;;;;;;;;;;;;;7.95;64.96973;101997.5;;;;-73
2023/04/25 19:44:31;;;;;;;;;;;;;;;7.8;65.68652;101996.9;;;;-75
2023/04/25 19:48:47;;;;;;;3;1.6;;;;;;;;;;;;;-73
2023/04/25 19:49:31;;;;;;;;;;;;;;;7.64;65.61914;101994.9;;;;-74
2023/04/25 19:54:29;;;;;;;;;;;;;;;7.47;66.15723;101998.5;;;;-74
2023/04/25 19:59:29;;;;;;;;;;;;;;;7.36;66.25;102002.9;;;;-73
2023/04/25 20:04:29;;;;;;;;;;;;;;;7.21;66.16016;101999;;;;-76
2023/04/25 20:09:29;;;;;;;;;;;;;;;7.09;66.33008;101999.5;;;;-75
2023/04/25 20:14:29;;;;;;;;;;;;;;;6.96;66.39746;102002.1;;;;-73
2023/04/25 20:18:51;;;;;;;3.9;1.6;;;;;;;;;;;;;-73
2023/04/25 20:19:29;;;;;;;;;;;;;;;6.84;66.63379;102003.9;;;;-73
2023/04/25 20:24:30;;;;;;;;;;;;;;;6.72;66.64746;102009.2;;;;-75
2023/04/25 20:29:29;;;;;;;;;;;;;;;6.62;66.88477;102012.2;;;;-74
2023/04/25 20:34:30;;;;;;;;;;;;;;;6.48;67.09473;102015.7;;;;-73
2023/04/25 20:39:29;;;;;;;;;;;;;;;6.36;67.02051;102017.1;;;;-73
2023/04/25 20:44:29;;;;;;;;;;;;;;;6.27;67.24902;102020.7;;;;-73
2023/04/25 20:48:51;;;;;;;4.6;1.6;;;;;;;;;;;;;-72
2023/04/25 20:49:29;;;;;;;;;;;;;;;6.14;67.31738;102014.3;;;;-72
2023/04/25 20:54:30;;;;;;;;;;;;;;;6.03;67.46582;102012.8;;;;-76
2023/04/25 20:59:29;;;;;;;;;;;;;;;5.95;67.37402;102013.1;;;;-73
2023/04/25 21:04:32;;;;;;;;;;;;;;;5.91;67.62109;102006.6;;;;-74
2023/04/25 21:09:29;;;;;;;;;;;;;;;5.81;67.58398;102002.7;;;;-75
2023/04/25 21:14:29;;;;;;;;;;;;;;;5.8;67.79102;102001.4;;;;-72
2023/04/25 21:18:50;;;;;;;5.2;1.6;;;;;;;;;;;;;-73
2023/04/25 21:19:34;;;;;;;;;;;;;;;5.72;67.82227;102002.7;;;;-73
2023/04/25 21:24:30;;;;;;;;;;;;;;;5.6;68.11133;102006.3;;;;-75
2023/04/25 21:29:31;;;;;;;;;;;;;;;5.53;67.95703;102019.7;;;;-73
2023/04/25 21:34:29;;;;;;;;;;;;;;;5.5;67.95215;102023.4;;;;-73
2023/04/25 21:39:29;;;;;;;;;;;;;;;5.56;67.90723;102033.4;;;;-73
2023/04/25 21:44:31;;;;;;;;;;;;;;;5.56;68.19336;102035.7;;;;-73
2023/04/25 21:48:50;;;;;;;3.4;1.5;;;;;;;;;;;;;-72
2023/04/25 21:49:29;;;;;;;;;;;;;;;5.55;68.58496;102031.1;;;;-73
2023/04/25 21:54:29;;;;;;;;;;;;;;;5.55;68.28906;102026.1;;;;-74
2023/04/25 21:59:29;;;;;;;;;;;;;;;5.48;68.14746;102029.7;;;;-73
2023/04/25 22:04:29;;;;;;;;;;;;;;;5.41;68.7627;102033.7;;;;-74
2023/04/25 22:09:33;;;;;;;;;;;;;;;5.39;68.45215;102026.2;;;;-73
2023/04/25 22:14:29;;;;;;;;;;;;;;;5.33;68.30957;102039.6;;;;-73
2023/04/25 22:18:51;;;;;;;4.2;1.3;;;;;;;;;;;;;-74
2023/04/25 22:19:29;;;;;;;;;;;;;;;5.26;68.49512;102037.6;;;;-74
2023/04/25 22:24:29;;;;;;;;;;;;;;;5.14;68.7627;102044.8;;;;-73
2023/04/25 22:29:29;;;;;;;;;;;;;;;5.06;68.82617;102044;;;;-73
2023/04/25 22:34:30;;;;;;;;;;;;;;;4.97;68.72461;102044;;;;-73
2023/04/25 22:39:29;;;;;;;;;;;;;;;4.94;69.16895;102044.1;;;;-73
2023/04/25 22:44:29;;;;;;;;;;;;;;;4.84;68.7793;102038.9;;;;-72
2023/04/25 22:48:51;;;;;;;3.4;1.2;;;;;;;;;;;;;-73
2023/04/25 22:49:32;;;;;;;;;;;;;;;4.85;69.10938;102045;;;;-73
2023/04/25 22:54:30;;;;;;;;;;;;;;;4.8;69.12402;102048.3;;;;-73
2023/04/25 22:59:29;;;;;;;;;;;;;;;4.72;69.17773;102047.1;;;;-72
2023/04/25 23:04:29;;;;;;;;;;;;;;;4.73;69.32031;102046;;;;-73
2023/04/25 23:09:29;;;;;;;;;;;;;;;4.66;69.17871;102048.8;;;;-73
2023/04/25 23:14:29;;;;;;;;;;;;;;;4.59;69.51758;102053.4;;;;-73
2023/04/25 23:18:52;;;;;;;2.3;1.1;;;;;;;;;;;;;-72
2023/04/25 23:19:29;;;;;;;;;;;;;;;4.54;69.5752;102057.3;;;;-72
2023/04/25 23:24:29;;;;;;;;;;;;;;;4.54;69.48828;102053.9;;;;-74
2023/04/25 23:29:29;;;;;;;;;;;;;;;4.5;69.78711;102051.7;;;;-71
2023/04/25 23:34:32;;;;;;;;;;;;;;;4.48;69.58691;102046.4;;;;-72
2023/04/25 23:39:30;;;;;;;;;;;;;;;4.4;69.57422;102044.5;;;;-73
2023/04/25 23:44:33;;;;;;;;;;;;;;;4.36;69.64453;102041.8;;;;-73
2023/04/25 23:48:52;;;;;;;4.2;1.1;;;;;;;;;;;;;-73
2023/04/25 23:49:29;;;;;;;;;;;;;;;4.32;69.68262;102042.1;;;;-72
2023/04/25 23:54:29;;;;;;;;;;;;;;;4.23;69.67676;102046.2;;;;-72
2023/04/25 23:59:29;;;;;;;;;;;;;;;4.15;69.84082;102050.5;;;;-72
